LIFSTR2 KRVL-KADW
Flight info
| Callsign | LIFSTR2 |
|---|---|
| Flight time | N/A |
| Altitude | 5000 |
| Route | PSB V12 HAR V143 MRB V214 CSN |
| Aircraft | H160/L-SBGR/S |
Departure
| Time | 2026-04-28 06:05 |
|---|---|
| Airport | Mifflin County Airport (KRVL) |
Arrival
| Time | N/A |
|---|---|
| Airport | Joint Base Andrews (KADW) |
| Time | Latitude | Longitude | Altitude | Speed | Heading |
|---|---|---|---|---|---|
| 2026-04-28 05:49 | 40.67572 | -77.62566 | 828 ft | 0 kts | 46° |
| 2026-04-28 06:04 | 40.67557 | -77.62559 | 933 ft | 7 kts | 128° |
| 2026-04-28 06:04 | 40.67468 | -77.62538 | 1288 ft | 19 kts | 129° |
| 2026-04-28 06:05 | 40.67305 | -77.62516 | 1465 ft | 33 kts | 156° |
| 2026-04-28 06:05 | 40.67013 | -77.62559 | 1770 ft | 51 kts | 174° |
| 2026-04-28 06:05 | 40.66614 | -77.62659 | 2101 ft | 65 kts | 181° |
| 2026-04-28 06:05 | 40.66154 | -77.62815 | 2357 ft | 72 kts | 185° |
| 2026-04-28 06:06 | 40.65662 | -77.63022 | 2592 ft | 76 kts | 189° |
| 2026-04-28 06:06 | 40.65167 | -77.63269 | 2795 ft | 76 kts | 192° |
| 2026-04-28 06:06 | 40.64678 | -77.63553 | 2954 ft | 77 kts | 193° |
| 2026-04-28 06:06 | 40.64199 | -77.63868 | 3167 ft | 77 kts | 197° |
| 2026-04-28 06:07 | 40.63738 | -77.64209 | 3334 ft | 76 kts | 199° |
| 2026-04-28 06:07 | 40.63259 | -77.64289 | 3450 ft | 71 kts | 168° |
| 2026-04-28 06:07 | 40.62850 | -77.63853 | 3672 ft | 78 kts | 150° |
| 2026-04-28 06:07 | 40.62460 | -77.63333 | 4048 ft | 81 kts | 146° |
| 2026-04-28 06:08 | 40.62058 | -77.62794 | 4535 ft | 83 kts | 144° |
| 2026-04-28 06:08 | 40.61646 | -77.62247 | 4983 ft | 85 kts | 143° |
| 2026-04-28 06:08 | 40.61205 | -77.61724 | 5406 ft | 86 kts | 147° |
| 2026-04-28 06:08 | 40.60730 | -77.61237 | 5775 ft | 87 kts | 150° |
| 2026-04-28 06:09 | 40.60226 | -77.60779 | 6029 ft | 88 kts | 149° |
| 2026-04-28 06:09 | 40.59730 | -77.60355 | 5807 ft | 84 kts | 152° |
| 2026-04-28 06:09 | 40.59255 | -77.59974 | 5410 ft | 76 kts | 154° |
| 2026-04-28 06:09 | 40.58815 | -77.59650 | 5023 ft | 69 kts | 156° |
| 2026-04-28 06:10 | 40.58394 | -77.59373 | 4926 ft | 69 kts | 159° |
| 2026-04-28 06:10 | 40.57945 | -77.59111 | 5145 ft | 71 kts | 159° |
| 2026-04-28 06:10 | 40.57479 | -77.58850 | 5234 ft | 74 kts | 158° |
| 2026-04-28 06:10 | 40.57005 | -77.58580 | 5037 ft | 74 kts | 158° |
| 2026-04-28 06:11 | 40.56541 | -77.58326 | 4885 ft | 71 kts | 160° |
| 2026-04-28 06:11 | 40.56085 | -77.58089 | 4788 ft | 70 kts | 163° |
| 2026-04-28 06:11 | 40.55619 | -77.57866 | 4953 ft | 73 kts | 162° |
| 2026-04-28 06:11 | 40.55130 | -77.57637 | 5035 ft | 76 kts | 161° |
| 2026-04-28 06:12 | 40.54626 | -77.57397 | 5056 ft | 77 kts | 161° |
| 2026-04-28 06:12 | 40.54126 | -77.57165 | 5066 ft | 76 kts | 162° |
| 2026-04-28 06:12 | 40.53632 | -77.56938 | 5084 ft | 76 kts | 161° |
| 2026-04-28 06:12 | 40.53137 | -77.56709 | 5082 ft | 75 kts | 162° |
| 2026-04-28 06:13 | 40.52647 | -77.56489 | 5081 ft | 75 kts | 162° |
| 2026-04-28 06:13 | 40.52151 | -77.56269 | 5085 ft | 75 kts | 162° |
| 2026-04-28 06:13 | 40.51653 | -77.56050 | 5077 ft | 75 kts | 163° |
| 2026-04-28 06:13 | 40.51154 | -77.55834 | 5085 ft | 75 kts | 162° |
| 2026-04-28 06:14 | 40.50656 | -77.55616 | 5092 ft | 75 kts | 162° |
| 2026-04-28 06:14 | 40.50165 | -77.55401 | 5081 ft | 74 kts | 162° |
| 2026-04-28 06:14 | 40.49686 | -77.55196 | 5083 ft | 73 kts | 163° |
| 2026-04-28 06:14 | 40.49203 | -77.54990 | 5085 ft | 73 kts | 163° |
| 2026-04-28 06:15 | 40.48718 | -77.54786 | 5084 ft | 73 kts | 163° |
| 2026-04-28 06:15 | 40.48229 | -77.54581 | 5084 ft | 74 kts | 163° |
| 2026-04-28 06:15 | 40.47737 | -77.54375 | 5085 ft | 74 kts | 163° |
| 2026-04-28 06:15 | 40.47244 | -77.54167 | 5086 ft | 74 kts | 163° |
| 2026-04-28 06:16 | 40.46752 | -77.53961 | 5084 ft | 74 kts | 163° |
| 2026-04-28 06:16 | 40.46260 | -77.53756 | 5086 ft | 74 kts | 162° |
| 2026-04-28 06:16 | 40.45772 | -77.53551 | 5089 ft | 74 kts | 162° |
| 2026-04-28 06:16 | 40.45280 | -77.53346 | 5086 ft | 74 kts | 163° |
| 2026-04-28 06:17 | 40.44785 | -77.53141 | 5091 ft | 75 kts | 163° |
| 2026-04-28 06:17 | 40.44290 | -77.52934 | 5088 ft | 75 kts | 163° |
| 2026-04-28 06:17 | 40.43792 | -77.52727 | 5096 ft | 75 kts | 162° |
| 2026-04-28 06:18 | 40.42804 | -77.52314 | 5095 ft | 74 kts | 163° |
| 2026-04-28 06:18 | 40.42312 | -77.52109 | 5092 ft | 74 kts | 163° |
| 2026-04-28 06:18 | 40.41818 | -77.51906 | 5092 ft | 74 kts | 162° |
| 2026-04-28 06:18 | 40.41321 | -77.51704 | 5090 ft | 75 kts | 162° |
| 2026-04-28 06:19 | 40.40815 | -77.51495 | 5103 ft | 76 kts | 161° |
| 2026-04-28 06:19 | 40.40313 | -77.51283 | 5095 ft | 75 kts | 163° |
| 2026-04-28 06:19 | 40.39814 | -77.51077 | 5095 ft | 75 kts | 163° |
| 2026-04-28 06:19 | 40.39312 | -77.50868 | 5093 ft | 76 kts | 162° |
| 2026-04-28 06:20 | 40.38808 | -77.50663 | 5095 ft | 76 kts | 161° |
| 2026-04-28 06:20 | 40.38301 | -77.50451 | 5100 ft | 76 kts | 161° |
| 2026-04-28 06:20 | 40.37800 | -77.50244 | 5095 ft | 75 kts | 162° |
| 2026-04-28 06:20 | 40.37299 | -77.50032 | 5104 ft | 75 kts | 162° |
| 2026-04-28 06:21 | 40.36811 | -77.49826 | 5106 ft | 74 kts | 162° |
| 2026-04-28 06:21 | 40.36323 | -77.49621 | 5102 ft | 73 kts | 162° |
| 2026-04-28 06:21 | 40.35836 | -77.49419 | 5099 ft | 74 kts | 161° |
| 2026-04-28 06:21 | 40.35343 | -77.49215 | 5105 ft | 75 kts | 162° |
| 2026-04-28 06:22 | 40.34847 | -77.49009 | 5101 ft | 75 kts | 162° |
| 2026-04-28 06:22 | 40.34352 | -77.48803 | 5103 ft | 74 kts | 162° |
| 2026-04-28 06:22 | 40.33859 | -77.48598 | 5107 ft | 74 kts | 162° |
| 2026-04-28 06:22 | 40.33368 | -77.48395 | 5107 ft | 74 kts | 162° |
| 2026-04-28 06:23 | 40.32876 | -77.48191 | 5106 ft | 74 kts | 162° |
| 2026-04-28 06:23 | 40.32382 | -77.47986 | 5104 ft | 75 kts | 162° |
| 2026-04-28 06:23 | 40.31886 | -77.47781 | 5109 ft | 75 kts | 162° |
| 2026-04-28 06:23 | 40.31397 | -77.47579 | 5107 ft | 75 kts | 162° |
| 2026-04-28 06:24 | 40.30899 | -77.47373 | 5107 ft | 75 kts | 162° |
| 2026-04-28 06:24 | 40.30318 | -77.47142 | 5068 ft | 102 kts | 162° |
| 2026-04-28 06:24 | 40.29627 | -77.46866 | 5131 ft | 102 kts | 164° |
| 2026-04-28 06:24 | 40.28958 | -77.46589 | 5113 ft | 102 kts | 163° |
| 2026-04-28 06:25 | 40.28266 | -77.46303 | 5103 ft | 110 kts | 163° |
| 2026-04-28 06:25 | 40.27503 | -77.45994 | 5113 ft | 116 kts | 164° |
| 2026-04-28 06:25 | 40.26835 | -77.45709 | 5133 ft | 83 kts | 163° |
| 2026-04-28 06:25 | 40.26361 | -77.45501 | 5116 ft | 69 kts | 163° |
| 2026-04-28 06:26 | 40.25894 | -77.45304 | 5114 ft | 71 kts | 162° |
| 2026-04-28 06:26 | 40.25423 | -77.45107 | 5110 ft | 71 kts | 162° |
| 2026-04-28 06:26 | 40.24952 | -77.44911 | 5108 ft | 71 kts | 162° |
| 2026-04-28 06:26 | 40.24479 | -77.44715 | 5111 ft | 71 kts | 162° |
| 2026-04-28 06:27 | 40.24008 | -77.44520 | 5114 ft | 71 kts | 162° |
| 2026-04-28 06:27 | 40.23541 | -77.44327 | 5112 ft | 70 kts | 162° |